Time;durP1;ratioP1;P1;durP2;ratioP2;P2;SDS_P1;SDS_P2;PMS_P1;PMS_P2;Temp;Humidity;BMP_temperature;BMP_pressure;BME280_temperature;BME280_humidity;BME280_pressure;Samples;Min_cycle;Max_cycle;Signal;HPM_P1;HPM_P2
2022/09/02 00:00:59;;;;;;;2.00;1.90;;;23.10;71.40;;;;;;5032394;28;20234;-69
2022/09/02 00:03:27;;;;;;;3.17;2.15;;;23.10;71.40;;;;;;5031730;28;20201;-69
2022/09/02 00:05:53;;;;;;;1.98;1.80;;;23.10;71.40;;;;;;5049058;28;20183;-69
2022/09/02 00:08:19;;;;;;;4.38;2.15;;;23.10;71.40;;;;;;5033195;28;20225;-68
2022/09/02 00:10:45;;;;;;;3.40;1.90;;;23.10;71.40;;;;;;5033543;28;20202;-68
2022/09/02 00:13:15;;;;;;;2.28;1.80;;;23.10;71.30;;;;;;5031753;28;20211;-69
2022/09/02 00:15:42;;;;;;;3.38;2.17;;;23.00;71.20;;;;;;5031981;28;20197;-69
2022/09/02 00:18:11;;;;;;;2.95;2.20;;;23.00;71.20;;;;;;5048740;28;20187;-69
2022/09/02 00:20:39;;;;;;;2.72;2.20;;;23.10;71.30;;;;;;5031829;28;20226;-69
2022/09/02 00:23:06;;;;;;;3.22;2.20;;;23.00;71.30;;;;;;5047840;28;20183;-69
2022/09/02 00:25:34;;;;;;;2.22;2.00;;;23.00;71.30;;;;;;5031680;28;20179;-69
2022/09/02 00:28:00;;;;;;;1.95;1.85;;;23.00;71.30;;;;;;5033130;28;20175;-69
2022/09/02 00:30:25;;;;;;;2.60;1.75;;;23.00;71.30;;;;;;5015274;28;20238;-69
2022/09/02 00:32:52;;;;;;;2.13;1.92;;;23.00;71.40;;;;;;5031244;28;20210;-69
2022/09/02 00:35:18;;;;;;;2.17;1.98;;;23.00;71.40;;;;;;5015432;28;20271;-69
2022/09/02 00:37:44;;;;;;;2.70;2.10;;;23.10;71.50;;;;;;5031543;28;20175;-69
2022/09/02 00:40:13;;;;;;;3.22;1.77;;;23.00;71.40;;;;;;5031715;28;20219;-69
2022/09/02 00:42:40;;;;;;;3.30;2.10;;;23.00;71.40;;;;;;5032540;28;20179;-69
2022/09/02 00:45:08;;;;;;;1.70;1.60;;;23.00;71.40;;;;;;5032019;28;20175;-69
2022/09/02 00:47:35;;;;;;;2.25;1.73;;;23.00;71.50;;;;;;5030997;28;20187;-69
2022/09/02 00:50:07;;;;;;;2.05;1.85;;;23.00;71.40;;;;;;5015514;28;20226;-69
2022/09/02 00:52:44;;;;;;;1.80;1.70;;;23.00;71.30;;;;;;5031234;28;20175;-68
2022/09/02 00:55:31;;;;;;;2.38;1.88;;;23.00;71.30;;;;;;5040723;28;20178;-68
2022/09/02 00:58:16;;;;;;;1.88;1.70;;;23.00;71.20;;;;;;5031382;28;20183;-68
2022/09/02 01:00:46;;;;;;;1.73;1.63;;;23.00;71.30;;;;;;5031533;28;20203;-68
2022/09/02 01:03:19;;;;;;;2.15;1.95;;;23.00;71.30;;;;;;5030959;28;20183;-69
2022/09/02 01:05:50;;;;;;;3.05;2.00;;;23.00;71.30;;;;;;5032736;28;20164;-69
2022/09/02 01:08:23;;;;;;;1.90;1.80;;;23.00;71.40;;;;;;5031173;28;20184;-69
2022/09/02 01:10:54;;;;;;;1.70;1.60;;;23.00;72.10;;;;;;5031097;28;20203;-69
2022/09/02 01:13:24;;;;;;;1.88;1.77;;;23.00;71.50;;;;;;5014053;28;20207;-69
2022/09/02 01:15:57;;;;;;;1.88;1.67;;;23.00;71.40;;;;;;5031076;28;20217;-70
2022/09/02 01:18:28;;;;;;;1.85;1.75;;;23.00;71.30;;;;;;5014626;28;20191;-70
2022/09/02 01:21:00;;;;;;;1.95;1.70;;;23.00;71.70;;;;;;5031552;28;20230;-70
2022/09/02 01:23:28;;;;;;;1.88;1.77;;;23.00;71.30;;;;;;5013976;28;20190;-69
2022/09/02 01:25:55;;;;;;;2.72;2.00;;;23.00;71.30;;;;;;5030592;28;20183;-69
2022/09/02 01:28:22;;;;;;;2.42;1.85;;;23.00;71.40;;;;;;5031642;28;20292;-69
2022/09/02 01:30:52;;;;;;;1.50;1.40;;;23.00;71.40;;;;;;5031310;28;20726;-68
2022/09/02 01:33:21;;;;;;;2.20;1.90;;;23.00;71.50;;;;;;5030458;28;20183;-69
2022/09/02 01:35:47;;;;;;;1.88;1.52;;;23.00;71.60;;;;;;5031266;28;20232;-69
2022/09/02 01:38:14;;;;;;;1.88;1.77;;;23.00;71.60;;;;;;5014406;28;20171;-69
2022/09/02 01:40:40;;;;;;;2.38;1.70;;;23.00;71.50;;;;;;5030744;28;20211;-69
2022/09/02 01:43:14;;;;;;;1.95;1.80;;;23.00;71.50;;;;;;5014027;28;20183;-69
2022/09/02 01:45:44;;;;;;;2.53;1.92;;;23.00;71.60;;;;;;5030792;28;20682;-69
2022/09/02 01:48:12;;;;;;;1.80;1.70;;;23.00;71.60;;;;;;5031571;28;20245;-69
2022/09/02 01:50:42;;;;;;;2.08;1.90;;;23.00;71.60;;;;;;5030909;28;20223;-70
2022/09/02 01:53:08;;;;;;;1.63;1.52;;;23.00;71.60;;;;;;5029942;28;20195;-69
2022/09/02 01:55:35;;;;;;;1.85;1.70;;;22.90;71.40;;;;;;5014362;28;20254;-69
2022/09/02 01:58:01;;;;;;;1.65;1.55;;;23.00;71.50;;;;;;5015185;28;20183;-69
2022/09/02 02:00:27;;;;;;;3.38;1.73;;;23.00;71.50;;;;;;5034601;28;20218;-69
2022/09/02 02:02:54;;;;;;;2.85;1.40;;;23.00;71.50;;;;;;5034094;28;20321;-69
2022/09/02 02:05:21;;;;;;;2.45;1.60;;;23.00;71.40;;;;;;5018417;28;20218;-69
2022/09/02 02:07:49;;;;;;;1.70;1.60;;;22.90;71.40;;;;;;5031218;28;20191;-69
2022/09/02 02:10:18;;;;;;;1.70;1.60;;;23.00;71.50;;;;;;5034193;28;20215;-69
2022/09/02 02:12:44;;;;;;;1.55;1.45;;;22.90;71.50;;;;;;5017673;28;20187;-69
2022/09/02 02:15:16;;;;;;;1.40;1.30;;;22.90;71.40;;;;;;5034792;28;20571;-68
2022/09/02 02:17:43;;;;;;;1.95;1.70;;;23.00;71.60;;;;;;5034474;28;20248;-69
2022/09/02 02:20:11;;;;;;;1.52;1.42;;;22.90;71.50;;;;;;5017795;28;20694;-69
2022/09/02 02:22:37;;;;;;;1.80;1.70;;;22.90;71.50;;;;;;5033561;28;20218;-68
2022/09/02 02:25:06;;;;;;;1.80;1.70;;;22.90;71.50;;;;;;5034241;28;20210;-69
2022/09/02 02:27:32;;;;;;;1.73;1.60;;;22.90;71.50;;;;;;5034006;28;20287;-69
2022/09/02 02:30:03;;;;;;;2.38;1.80;;;22.90;71.50;;;;;;5034292;28;20215;-69
2022/09/02 02:32:31;;;;;;;1.65;1.55;;;23.00;71.80;;;;;;5033604;28;20183;-69
2022/09/02 02:34:58;;;;;;;2.00;1.40;;;22.90;71.50;;;;;;5034082;28;20192;-69
2022/09/02 02:37:24;;;;;;;1.48;1.38;;;22.90;71.60;;;;;;5033985;28;20206;-69
2022/09/02 02:39:50;;;;;;;1.40;1.30;;;23.00;71.70;;;;;;5033568;28;20214;-69
2022/09/02 02:42:16;;;;;;;1.70;1.60;;;22.90;71.50;;;;;;5033376;28;20190;-69
2022/09/02 02:44:42;;;;;;;2.28;1.80;;;22.90;71.50;;;;;;5017534;28;20187;-69
2022/09/02 02:47:08;;;;;;;1.50;1.40;;;22.90;71.50;;;;;;5034018;28;20211;-69
2022/09/02 02:49:40;;;;;;;1.80;1.70;;;22.90;71.50;;;;;;5033660;28;20302;-69
2022/09/02 02:52:07;;;;;;;1.67;1.40;;;22.90;71.40;;;;;;5033126;28;20195;-69
2022/09/02 02:54:33;;;;;;;1.65;1.55;;;22.90;71.40;;;;;;5033547;28;20179;-69
2022/09/02 02:57:00;;;;;;;1.52;1.42;;;22.90;71.40;;;;;;5033866;28;20175;-69
2022/09/02 02:59:26;;;;;;;1.92;1.38;;;22.90;71.50;;;;;;5033861;28;20207;-69
2022/09/02 03:01:52;;;;;;;1.88;1.73;;;22.90;71.60;;;;;;5032919;28;20184;-68
2022/09/02 03:04:18;;;;;;;1.42;1.33;;;22.90;71.50;;;;;;5033778;28;20191;-69
2022/09/02 03:06:44;;;;;;;1.77;1.38;;;22.90;71.50;;;;;;5033618;28;20213;-69
2022/09/02 03:09:10;;;;;;;1.60;1.50;;;22.90;71.50;;;;;;5016528;28;20243;-69
2022/09/02 03:11:37;;;;;;;1.48;1.38;;;22.90;71.60;;;;;;5033078;28;20215;-69
2022/09/02 03:14:04;;;;;;;1.63;1.50;;;22.90;71.60;;;;;;5033034;28;20179;-69
2022/09/02 03:16:34;;;;;;;1.70;1.60;;;22.90;71.60;;;;;;5033295;28;20179;-69
2022/09/02 03:19:00;;;;;;;1.67;1.58;;;22.90;71.50;;;;;;5033332;28;20286;-69
2022/09/02 03:21:26;;;;;;;1.30;1.20;;;22.90;71.60;;;;;;5033122;28;20184;-69
2022/09/02 03:23:53;;;;;;;1.48;1.38;;;22.90;71.60;;;;;;5032368;28;20195;-69
2022/09/02 03:26:23;;;;;;;3.13;1.50;;;22.90;71.50;;;;;;5033018;28;20186;-69
2022/09/02 03:28:55;;;;;;;1.60;1.50;;;22.90;71.50;;;;;;5033023;28;20206;-69
2022/09/02 03:31:24;;;;;;;1.58;1.48;;;22.90;71.60;;;;;;5034549;28;20172;-69
2022/09/02 03:33:52;;;;;;;1.67;1.58;;;22.90;71.60;;;;;;5016437;28;20168;-69
2022/09/02 03:36:33;;;;;;;1.70;1.60;;;22.90;71.50;;;;;;5032906;28;20273;-68
2022/09/02 03:39:00;;;;;;;1.65;1.55;;;22.90;71.50;;;;;;5016384;28;20229;-69
2022/09/02 03:41:28;;;;;;;1.60;1.50;;;22.90;71.50;;;;;;5033234;28;20188;-69
2022/09/02 03:43:55;;;;;;;1.50;1.40;;;22.90;71.60;;;;;;5032305;28;20219;-69
2022/09/02 03:46:20;;;;;;;1.40;1.30;;;22.90;71.50;;;;;;5032699;28;20203;-69
2022/09/02 03:48:50;;;;;;;2.05;1.35;;;22.90;71.50;;;;;;5016130;28;20616;-69
2022/09/02 03:51:20;;;;;;;1.92;1.50;;;22.90;71.60;;;;;;5032963;28;20183;-69
2022/09/02 03:53:47;;;;;;;1.40;1.30;;;22.90;71.60;;;;;;5030975;28;20176;-69
2022/09/02 03:56:15;;;;;;;1.33;1.10;;;22.90;71.70;;;;;;5032669;28;20270;-69
2022/09/02 03:58:44;;;;;;;1.70;1.60;;;22.90;71.60;;;;;;5032514;28;20202;-69
2022/09/02 04:01:21;;;;;;;1.70;1.60;;;22.90;71.60;;;;;;5032637;28;20179;-69
2022/09/02 04:03:47;;;;;;;1.67;1.40;;;22.90;71.60;;;;;;5032011;28;20175;-69
2022/09/02 04:06:17;;;;;;;1.70;1.60;;;22.90;71.50;;;;;;5032268;28;20213;-69
2022/09/02 04:08:43;;;;;;;2.05;1.35;;;22.90;71.60;;;;;;5032072;28;20199;-69
2022/09/02 04:11:16;;;;;;;1.45;1.35;;;22.90;71.50;;;;;;5032668;28;20182;-69
2022/09/02 04:13:47;;;;;;;1.30;1.20;;;22.90;71.60;;;;;;5015417;28;20171;-69
2022/09/02 04:16:27;;;;;;;1.58;1.48;;;22.90;71.50;;;;;;5032728;28;20180;-68
2022/09/02 04:18:59;;;;;;;1.60;1.50;;;22.90;71.50;;;;;;5032212;28;20237;-69
2022/09/02 04:21:27;;;;;;;1.35;1.25;;;22.90;71.50;;;;;;5031180;28;20191;-69
2022/09/02 04:23:53;;;;;;;1.42;1.30;;;22.90;71.70;;;;;;5030948;28;20183;-69
2022/09/02 04:26:21;;;;;;;1.40;1.30;;;22.90;71.50;;;;;;5031828;28;20191;-69
2022/09/02 04:28:53;;;;;;;1.17;1.13;;;22.90;71.70;;;;;;5031675;28;20206;-69
2022/09/02 04:31:24;;;;;;;1.40;1.30;;;22.90;71.60;;;;;;5015623;28;20179;-69
2022/09/02 04:33:52;;;;;;;1.00;1.00;;;22.80;71.50;;;;;;5031370;28;20183;-69
2022/09/02 04:36:21;;;;;;;1.35;1.25;;;22.80;71.60;;;;;;5031837;28;20182;-69
2022/09/02 04:38:49;;;;;;;1.30;1.20;;;22.80;71.50;;;;;;5031772;28;20330;-70
2022/09/02 04:41:23;;;;;;;1.40;1.30;;;22.90;71.60;;;;;;5031667;28;20191;-69
2022/09/02 04:43:55;;;;;;;1.30;1.20;;;22.80;71.50;;;;;;5031553;28;20678;-69
2022/09/02 04:46:23;;;;;;;1.17;1.17;;;22.80;71.50;;;;;;5031538;28;20187;-69
2022/09/02 04:48:50;;;;;;;1.58;1.48;;;22.80;71.50;;;;;;5031494;28;20294;-69
2022/09/02 04:51:20;;;;;;;1.60;1.40;;;22.80;71.50;;;;;;5031516;28;20200;-69
2022/09/02 04:53:51;;;;;;;1.30;1.20;;;22.80;71.50;;;;;;5030568;28;20210;-69
2022/09/02 04:56:24;;;;;;;1.30;1.20;;;22.80;71.60;;;;;;5015289;28;20190;-69
2022/09/02 04:58:54;;;;;;;1.15;1.10;;;22.80;71.50;;;;;;5015343;28;20202;-69
2022/09/02 05:01:26;;;;;;;1.30;1.20;;;22.80;71.40;;;;;;5031342;28;20193;-69
2022/09/02 05:03:54;;;;;;;1.27;1.25;;;22.80;71.50;;;;;;5031080;28;20227;-68
2022/09/02 05:06:27;;;;;;;1.00;1.00;;;22.90;71.60;;;;;;5031202;28;20183;-70
2022/09/02 05:08:59;;;;;;;1.40;1.30;;;22.80;71.50;;;;;;5031650;28;20202;-69
2022/09/02 05:11:30;;;;;;;1.13;1.13;;;22.80;71.50;;;;;;5031538;28;20175;-69
2022/09/02 05:14:01;;;;;;;1.85;1.30;;;22.80;71.50;;;;;;5028600;28;20258;-69
2022/09/02 05:16:33;;;;;;;1.35;1.25;;;22.80;71.40;;;;;;5031139;28;20768;-69
2022/09/02 05:19:00;;;;;;;1.80;1.70;;;22.80;71.50;;;;;;5031098;28;20567;-69
2022/09/02 05:21:38;;;;;;;1.42;1.33;;;22.80;71.40;;;;;;5031569;28;20175;-69
2022/09/02 05:24:04;;;;;;;1.30;1.20;;;22.90;71.60;;;;;;5030674;28;20269;-69
2022/09/02 05:26:34;;;;;;;1.10;1.10;;;22.80;71.40;;;;;;5031287;28;20187;-69
2022/09/02 05:29:05;;;;;;;1.23;1.20;;;22.80;71.40;;;;;;5031137;28;20243;-69
2022/09/02 05:31:33;;;;;;;1.42;1.33;;;22.80;71.50;;;;;;5014967;28;20168;-69
2022/09/02 05:33:59;;;;;;;1.92;1.30;;;22.80;71.50;;;;;;5035205;28;20180;-69
2022/09/02 05:36:26;;;;;;;1.52;1.42;;;22.80;71.50;;;;;;5054430;28;20206;-69
2022/09/02 05:38:53;;;;;;;1.52;1.38;;;22.80;71.60;;;;;;5037257;28;20724;-69
2022/09/02 05:41:22;;;;;;;1.30;1.20;;;22.80;71.50;;;;;;5037822;28;20187;-69
2022/09/02 05:43:56;;;;;;;5.45;1.98;;;22.80;71.60;;;;;;5037578;28;20190;-69
2022/09/02 05:46:24;;;;;;;4.47;1.67;;;22.80;71.80;;;;;;5037080;28;20186;-69
2022/09/02 05:49:07;;;;;;;3.33;1.60;;;22.80;71.90;;;;;;5037870;28;20694;-69
2022/09/02 05:51:54;;;;;;;4.30;1.50;;;22.80;72.00;;;;;;5037550;28;20171;-69
2022/09/02 05:54:31;;;;;;;2.72;1.67;;;22.80;71.90;;;;;;5037018;28;20189;-69
2022/09/02 05:57:11;;;;;;;3.95;1.60;;;22.80;72.00;;;;;;5054049;28;20191;-69
2022/09/02 05:59:42;;;;;;;6.38;1.65;;;22.80;72.00;;;;;;5038261;28;20202;-69
2022/09/02 06:02:13;;;;;;;2.30;1.40;;;22.80;72.00;;;;;;5037153;28;20660;-68
2022/09/02 06:04:47;;;;;;;3.92;1.77;;;22.80;72.00;;;;;;5020785;28;20187;-68
2022/09/02 06:07:16;;;;;;;2.20;1.50;;;22.80;72.00;;;;;;5037311;28;20179;-69
2022/09/02 06:09:44;;;;;;;5.65;1.88;;;22.80;72.00;;;;;;5037379;28;20243;-69
2022/09/02 06:12:13;;;;;;;2.80;1.60;;;22.80;72.00;;;;;;5036966;28;20265;-68
2022/09/02 06:14:41;;;;;;;3.13;1.60;;;22.80;72.00;;;;;;5053816;28;20205;-69
2022/09/02 06:17:09;;;;;;;5.28;1.80;;;22.80;72.00;;;;;;5037173;28;20187;-69
2022/09/02 06:19:40;;;;;;;2.70;1.70;;;22.80;72.00;;;;;;5037863;28;20682;-69
2022/09/02 06:22:07;;;;;;;2.67;1.55;;;22.80;72.00;;;;;;5028368;28;20191;-68
2022/09/02 06:24:35;;;;;;;1.95;1.40;;;22.80;72.00;;;;;;5023441;28;20197;-69
2022/09/02 06:27:06;;;;;;;3.80;1.77;;;22.80;72.00;;;;;;5017437;28;20180;-68
2022/09/02 06:29:34;;;;;;;4.60;1.75;;;22.80;72.00;;;;;;5017152;28;20362;-68
2022/09/02 06:32:00;;;;;;;2.90;1.45;;;22.90;72.20;;;;;;5001125;28;20271;-68
2022/09/02 06:34:27;;;;;;;2.83;1.70;;;22.90;72.30;;;;;;5016866;28;20199;-68
2022/09/02 06:36:56;;;;;;;3.03;1.70;;;22.90;72.40;;;;;;5020645;28;20270;-68
2022/09/02 06:39:24;;;;;;;3.22;1.52;;;22.90;72.40;;;;;;5036583;28;20845;-68
2022/09/02 06:41:51;;;;;;;4.40;1.80;;;22.90;72.40;;;;;;5020055;28;20195;-68
2022/09/02 06:44:20;;;;;;;5.07;1.55;;;22.90;72.30;;;;;;5018909;28;20195;-69
2022/09/02 06:46:56;;;;;;;1.77;1.45;;;22.90;72.40;;;;;;5033693;28;20278;-68
2022/09/02 06:49:24;;;;;;;2.25;1.58;;;22.90;72.50;;;;;;5017582;28;20215;-69
2022/09/02 06:51:54;;;;;;;4.57;1.60;;;22.90;72.40;;;;;;5033866;28;20183;-68
2022/09/02 06:54:24;;;;;;;3.65;1.65;;;22.90;72.40;;;;;;5033306;28;20198;-68
2022/09/02 06:56:57;;;;;;;3.95;1.60;;;22.90;72.50;;;;;;5034280;28;20186;-69
2022/09/02 06:59:25;;;;;;;4.55;1.60;;;22.90;72.60;;;;;;5033607;28;20218;-68
2022/09/02 07:01:55;;;;;;;1.35;1.25;;;22.90;72.60;;;;;;5033552;28;20180;-69
2022/09/02 07:07:10;;;;;;;4.32;1.50;;;22.90;72.50;;;;;;5033453;28;20179;-68
2022/09/02 07:09:41;;;;;;;2.35;1.85;;;22.90;72.40;;;;;;5033604;28;20222;-68
2022/09/02 07:12:13;;;;;;;3.00;1.70;;;22.90;72.20;;;;;;5016461;28;20187;-68
2022/09/02 07:14:46;;;;;;;2.42;1.45;;;22.90;72.40;;;;;;5048478;28;20179;-69
2022/09/02 07:17:20;;;;;;;1.85;1.52;;;22.90;70.80;;;;;;5017282;28;20179;-69
2022/09/02 07:19:51;;;;;;;3.65;1.65;;;22.80;70.00;;;;;;5033147;28;20206;-68
2022/09/02 07:22:17;;;;;;;2.67;1.80;;;22.70;69.00;;;;;;5030964;28;20184;-68
2022/09/02 07:24:43;;;;;;;2.13;1.67;;;22.80;68.10;;;;;;5049618;28;20270;-69
2022/09/02 07:27:11;;;;;;;2.65;1.65;;;22.70;67.00;;;;;;5033287;28;20193;-69
2022/09/02 07:29:38;;;;;;;2.15;1.70;;;22.70;66.00;;;;;;5016376;28;20215;-69
2022/09/02 07:32:04;;;;;;;2.78;1.92;;;22.70;66.00;;;;;;5012703;28;20185;-69
2022/09/02 07:34:30;;;;;;;3.97;1.63;;;22.60;65.60;;;;;;5029378;28;20241;-68
2022/09/02 07:36:57;;;;;;;1.98;1.77;;;22.70;65.10;;;;;;5032764;28;20202;-68
2022/09/02 07:39:23;;;;;;;2.08;1.90;;;22.60;64.50;;;;;;5025025;28;20203;-69
2022/09/02 07:41:51;;;;;;;2.75;1.83;;;22.60;63.70;;;;;;5032563;28;20214;-69
2022/09/02 07:44:22;;;;;;;3.00;1.90;;;22.60;63.50;;;;;;5032323;28;20210;-68
2022/09/02 07:46:50;;;;;;;2.15;1.95;;;22.60;63.70;;;;;;5016660;28;20217;-68
2022/09/02 07:49:19;;;;;;;2.30;1.95;;;22.60;62.80;;;;;;5016440;28;20284;-69
2022/09/02 07:51:48;;;;;;;1.92;1.70;;;22.60;62.60;;;;;;5032776;28;20230;-69
2022/09/02 07:54:20;;;;;;;2.25;1.88;;;22.60;62.50;;;;;;5012079;28;20207;-68
2022/09/02 07:56:48;;;;;;;1.80;1.70;;;22.60;62.10;;;;;;5015840;28;20208;-69
2022/09/02 07:59:16;;;;;;;4.60;2.00;;;22.60;62.20;;;;;;5016410;28;20269;-69
2022/09/02 08:01:42;;;;;;;1.70;1.60;;;22.60;62.00;;;;;;5032481;28;20186;-69
2022/09/02 08:04:10;;;;;;;1.70;1.60;;;22.70;61.70;;;;;;5031984;28;20187;-69
2022/09/02 08:06:36;;;;;;;2.22;1.85;;;22.70;61.90;;;;;;5016079;28;20175;-69
2022/09/02 08:09:10;;;;;;;2.47;1.70;;;22.70;61.70;;;;;;5033315;28;20242;-69
2022/09/02 08:11:45;;;;;;;2.80;1.85;;;22.70;61.70;;;;;;5014041;28;20237;-68
2022/09/02 08:14:16;;;;;;;2.47;1.50;;;22.70;61.60;;;;;;5048437;28;20179;-68
2022/09/02 08:16:45;;;;;;;1.90;1.80;;;22.70;61.40;;;;;;5033363;28;20232;-69
2022/09/02 08:19:13;;;;;;;2.00;1.48;;;22.70;61.10;;;;;;5032221;28;20225;-69
2022/09/02 08:21:38;;;;;;;1.83;1.55;;;22.70;61.60;;;;;;5032424;28;20225;-69
2022/09/02 08:24:04;;;;;;;1.95;1.70;;;22.70;61.60;;;;;;5032570;28;20183;-69
2022/09/02 08:26:35;;;;;;;1.90;1.77;;;22.80;62.30;;;;;;5033094;28;20233;-70
2022/09/02 08:29:03;;;;;;;2.40;1.80;;;22.70;61.60;;;;;;5013362;28;20278;-69
2022/09/02 08:31:30;;;;;;;2.72;1.60;;;22.70;62.70;;;;;;5028695;28;20171;-69
2022/09/02 08:33:57;;;;;;;1.65;1.50;;;22.80;62.30;;;;;;5033915;28;20191;-69
2022/09/02 08:36:25;;;;;;;3.33;1.65;;;22.80;62.30;;;;;;5048322;28;20202;-69
2022/09/02 08:38:51;;;;;;;2.30;1.42;;;22.80;62.40;;;;;;5032307;28;20332;-69
2022/09/02 08:41:24;;;;;;;2.35;1.60;;;22.80;62.40;;;;;;5033059;28;20255;-70
2022/09/02 08:43:55;;;;;;;4.28;1.70;;;22.80;62.50;;;;;;5031207;28;20175;-69
2022/09/02 08:46:26;;;;;;;1.52;1.42;;;22.80;62.10;;;;;;5032917;28;20172;-70
2022/09/02 08:48:58;;;;;;;1.77;1.67;;;22.80;62.20;;;;;;5031731;28;20203;-69
2022/09/02 08:51:37;;;;;;;1.88;1.50;;;22.80;61.90;;;;;;5010542;28;20173;-69
2022/09/02 08:54:49;;;;;;;2.75;1.58;;;22.80;61.70;;;;;;5030942;28;20179;-69
2022/09/02 08:57:16;;;;;;;2.35;1.67;;;22.80;61.60;;;;;;5031429;28;20168;-69
2022/09/02 08:59:43;;;;;;;2.28;1.60;;;22.80;61.60;;;;;;5032588;28;20203;-69
2022/09/02 09:02:27;;;;;;;1.70;1.52;;;22.70;61.50;;;;;;5031549;28;20345;-69
2022/09/02 09:05:32;;;;;;;2.33;1.60;;;22.70;61.10;;;;;;5048670;28;20241;-69
2022/09/02 09:08:36;;;;;;;1.50;1.40;;;22.80;61.40;;;;;;5031552;28;20185;-70
2022/09/02 09:11:41;;;;;;;3.03;1.60;;;22.80;61.30;;;;;;5031621;28;20219;-69
2022/09/02 09:14:33;;;;;;;1.75;1.65;;;22.80;62.30;;;;;;5030887;28;20222;-70
2022/09/02 09:17:08;;;;;;;2.30;1.90;;;22.80;61.20;;;;;;5031379;28;20714;-69
2022/09/02 09:19:53;;;;;;;1.70;1.60;;;22.80;60.90;;;;;;5032518;28;20301;-69
2022/09/02 09:22:30;;;;;;;3.42;1.67;;;22.80;60.80;;;;;;5025889;28;20175;-69
2022/09/02 09:24:57;;;;;;;1.80;1.50;;;22.80;61.00;;;;;;5015792;28;20194;-69
2022/09/02 09:27:23;;;;;;;2.30;1.70;;;22.80;61.00;;;;;;5014543;28;20179;-69
2022/09/02 09:29:51;;;;;;;3.53;1.73;;;22.90;61.10;;;;;;5031083;28;20265;-69
2022/09/02 09:32:37;;;;;;;3.60;1.70;;;22.80;61.10;;;;;;5031403;28;20179;-69
2022/09/02 09:35:14;;;;;;;2.20;1.60;;;22.80;61.00;;;;;;5031141;28;20175;-69
2022/09/02 09:37:46;;;;;;;2.03;1.58;;;22.80;61.50;;;;;;5031205;28;20175;-69
2022/09/02 09:40:24;;;;;;;2.30;1.58;;;22.90;62.30;;;;;;5032104;28;20207;-69
2022/09/02 09:43:09;;;;;;;3.28;1.40;;;22.90;61.50;;;;;;5029310;28;20186;-69
2022/09/02 09:45:50;;;;;;;3.30;1.67;;;22.80;61.20;;;;;;5028449;28;20184;-69
2022/09/02 09:48:18;;;;;;;1.85;1.55;;;22.80;61.40;;;;;;5028396;28;20215;-69
2022/09/02 09:51:09;;;;;;;2.33;1.80;;;22.90;61.20;;;;;;4995064;28;20219;-69
2022/09/02 09:53:37;;;;;;;1.83;1.73;;;22.90;61.20;;;;;;5010796;28;20193;-69
2022/09/02 09:56:06;;;;;;;2.88;1.60;;;22.90;61.30;;;;;;4994793;28;20215;-69
2022/09/02 09:58:44;;;;;;;2.13;1.95;;;22.90;61.50;;;;;;4995145;28;20188;-69
2022/09/02 10:01:31;;;;;;;1.55;1.30;;;22.90;61.60;;;;;;4995387;28;20164;-69
2022/09/02 10:03:57;;;;;;;2.10;1.75;;;22.90;61.70;;;;;;5010965;28;20183;-69
2022/09/02 10:06:31;;;;;;;1.60;1.50;;;22.90;62.30;;;;;;5011246;28;20192;-69
2022/09/02 10:09:00;;;;;;;3.03;1.80;;;23.00;62.40;;;;;;5030011;28;20203;-70
2022/09/02 10:11:34;;;;;;;1.50;1.38;;;22.90;62.40;;;;;;5047497;28;20180;-69
2022/09/02 10:14:10;;;;;;;1.80;1.60;;;22.90;62.10;;;;;;5019609;28;20211;-69
2022/09/02 10:17:25;;;;;;;3.17;1.60;;;22.90;62.60;;;;;;5030662;28;20186;-69
2022/09/02 10:20:09;;;;;;;3.15;1.70;;;23.00;63.40;;;;;;5013351;28;20221;-69
2022/09/02 10:23:03;;;;;;;3.28;1.83;;;23.00;62.70;;;;;;5017676;28;20187;-69
2022/09/02 10:25:53;;;;;;;1.98;1.50;;;23.00;62.60;;;;;;5031604;28;20270;-70
2022/09/02 10:29:00;;;;;;;3.17;1.60;;;23.00;62.50;;;;;;5045379;28;20219;-69
2022/09/02 10:32:08;;;;;;;2.85;1.48;;;23.00;62.70;;;;;;5034009;28;20245;-69
2022/09/02 10:35:08;;;;;;;2.10;1.90;;;23.10;63.00;;;;;;5030126;28;20183;-69
2022/09/02 10:38:36;;;;;;;2.10;1.67;;;23.00;62.80;;;;;;5030710;28;20191;-69
2022/09/02 10:41:41;;;;;;;1.92;1.65;;;23.00;62.70;;;;;;4958051;28;20253;-69
2022/09/02 10:44:37;;;;;;;2.40;1.60;;;23.10;62.70;;;;;;4997041;28;20251;-69
2022/09/02 10:47:21;;;;;;;3.13;1.70;;;23.10;62.80;;;;;;4998287;28;20192;-69
2022/09/02 10:50:03;;;;;;;3.22;1.95;;;23.10;62.90;;;;;;5015927;28;20215;-69
2022/09/02 10:52:53;;;;;;;4.40;2.15;;;23.10;62.90;;;;;;5007905;28;20261;-69
2022/09/02 10:55:57;;;;;;;1.95;1.70;;;23.10;62.90;;;;;;5028459;28;20191;-70
2022/09/02 10:58:35;;;;;;;4.55;2.05;;;23.10;62.90;;;;;;5034022;28;20190;-69
2022/09/02 11:01:02;;;;;;;1.83;1.63;;;23.10;62.80;;;;;;5035145;28;20203;-68
2022/09/02 11:03:42;;;;;;;1.60;1.50;;;23.20;62.80;;;;;;5033354;28;20189;-69
2022/09/02 11:06:24;;;;;;;2.35;1.60;;;23.20;63.00;;;;;;5033750;28;20175;-69
2022/09/02 11:09:08;;;;;;;2.10;1.75;;;23.20;63.00;;;;;;5031761;28;20226;-69
2022/09/02 11:11:51;;;;;;;1.90;1.63;;;23.20;63.10;;;;;;5034013;28;20183;-70
2022/09/02 11:14:33;;;;;;;1.85;1.75;;;23.20;63.20;;;;;;5017248;28;20183;-69
2022/09/02 11:17:29;;;;;;;3.47;1.80;;;23.20;63.10;;;;;;5033692;28;20273;-70
2022/09/02 11:20:37;;;;;;;2.33;1.70;;;23.20;63.00;;;;;;5033816;28;20207;-69
2022/09/02 11:23:34;;;;;;;2.75;2.08;;;23.20;63.00;;;;;;5006524;28;20211;-68
2022/09/02 11:26:15;;;;;;;1.85;1.75;;;23.20;63.00;;;;;;5033169;28;20222;-69
2022/09/02 11:29:09;;;;;;;2.10;1.88;;;23.30;63.10;;;;;;5033550;28;20172;-69
2022/09/02 11:32:09;;;;;;;1.77;1.60;;;23.20;63.00;;;;;;5033453;28;20159;-69
2022/09/02 11:34:49;;;;;;;1.80;1.70;;;23.20;63.00;;;;;;5031431;28;20195;-68
2022/09/02 11:38:01;;;;;;;3.10;1.80;;;23.20;63.00;;;;;;5016434;28;20183;-70
2022/09/02 11:40:54;;;;;;;2.33;1.65;;;23.30;63.00;;;;;;5013507;28;20231;-69
2022/09/02 11:43:50;;;;;;;2.22;1.83;;;23.30;62.90;;;;;;5023607;28;20219;-69
2022/09/02 11:46:40;;;;;;;3.88;1.88;;;23.20;63.00;;;;;;5037667;28;20175;-69
2022/09/02 11:49:51;;;;;;;1.88;1.77;;;23.20;63.00;;;;;;5033907;28;20223;-69
2022/09/02 11:52:56;;;;;;;1.60;1.50;;;23.30;62.70;;;;;;5013354;28;20195;-70
2022/09/02 11:55:41;;;;;;;2.45;1.65;;;23.30;62.60;;;;;;4996838;28;20184;-69
2022/09/02 11:58:09;;;;;;;2.10;1.58;;;23.30;62.20;;;;;;5025189;28;20178;-69
2022/09/02 12:00:57;;;;;;;1.70;1.60;;;23.30;62.30;;;;;;5032624;28;20242;-68
2022/09/02 12:03:34;;;;;;;3.95;1.67;;;23.30;62.40;;;;;;5032014;28;20202;-69
2022/09/02 12:06:12;;;;;;;4.47;1.55;;;23.30;62.30;;;;;;5032352;28;20187;-68
2022/09/02 12:08:41;;;;;;;2.55;1.85;;;23.40;62.50;;;;;;5032291;28;20270;-69
2022/09/02 12:11:36;;;;;;;3.55;1.55;;;23.40;62.30;;;;;;5032315;28;20641;-69
2022/09/02 12:14:01;;;;;;;2.78;1.67;;;23.40;62.30;;;;;;5015284;28;20287;-69
2022/09/02 12:16:27;;;;;;;3.17;1.60;;;23.40;62.30;;;;;;5032311;28;20274;-69
2022/09/02 12:18:53;;;;;;;2.17;1.60;;;23.40;62.30;;;;;;5016308;28;20290;-69
2022/09/02 12:21:30;;;;;;;2.42;1.60;;;23.40;62.40;;;;;;5033283;28;20179;-69
2022/09/02 12:23:56;;;;;;;4.25;1.75;;;23.40;62.40;;;;;;5031355;28;20175;-69
2022/09/02 12:26:28;;;;;;;1.80;1.70;;;23.40;62.30;;;;;;5032020;28;20187;-69
2022/09/02 12:29:32;;;;;;;3.03;1.80;;;23.40;62.40;;;;;;5048455;28;20617;-69
2022/09/02 12:31:58;;;;;;;2.15;1.50;;;23.40;62.40;;;;;;5028911;28;20199;-69
2022/09/02 12:34:24;;;;;;;1.90;1.80;;;23.40;62.40;;;;;;5031526;28;20190;-69
2022/09/02 12:36:58;;;;;;;2.58;1.75;;;23.40;62.30;;;;;;5031715;28;20179;-70
2022/09/02 12:39:26;;;;;;;1.60;1.50;;;23.40;62.30;;;;;;5015194;28;20264;-69
2022/09/02 12:42:25;;;;;;;2.40;1.60;;;23.40;62.30;;;;;;5031586;28;20182;-69
2022/09/02 12:45:22;;;;;;;2.08;1.67;;;23.40;62.30;;;;;;5014952;28;20191;-69
2022/09/02 12:48:19;;;;;;;2.33;1.75;;;23.40;62.20;;;;;;5013447;28;20230;-69
2022/09/02 12:50:56;;;;;;;2.10;1.60;;;23.40;62.10;;;;;;5015307;28;20240;-69
2022/09/02 12:53:42;;;;;;;2.30;1.40;;;23.40;62.10;;;;;;5030872;28;20233;-69
2022/09/02 12:56:23;;;;;;;1.38;1.27;;;23.40;62.20;;;;;;5015225;28;20179;-70
2022/09/02 12:58:53;;;;;;;2.13;1.80;;;23.40;62.20;;;;;;5031666;28;20194;-69
2022/09/02 13:01:48;;;;;;;1.58;1.45;;;23.40;62.10;;;;;;5015099;28;20613;-70
2022/09/02 13:04:54;;;;;;;3.90;1.52;;;23.40;62.10;;;;;;5048153;28;20160;-69
2022/09/02 13:07:45;;;;;;;2.45;1.50;;;23.40;61.70;;;;;;5032733;28;20178;-69
2022/09/02 13:10:56;;;;;;;3.70;1.60;;;23.40;62.00;;;;;;5032614;28;20214;-70
2022/09/02 13:13:52;;;;;;;1.83;1.33;;;23.40;62.00;;;;;;5030415;28;20187;-69
2022/09/02 13:17:14;;;;;;;1.40;1.30;;;23.40;62.00;;;;;;5028456;28;20230;-69
2022/09/02 13:20:34;;;;;;;1.40;1.30;;;23.40;62.30;;;;;;5031484;28;20252;-69
2022/09/02 13:23:32;;;;;;;1.40;1.30;;;23.40;62.20;;;;;;5013939;28;20198;-69
2022/09/02 13:26:38;;;;;;;2.60;1.77;;;23.40;62.30;;;;;;5031095;28;20187;-69
2022/09/02 13:29:18;;;;;;;1.77;1.35;;;23.40;62.00;;;;;;5032195;28;20248;-69